createdAt,value
2018-09-01T00:01:22.346Z,14.00
2018-09-01T00:03:53.733Z,14.00
2018-09-01T00:06:22.131Z,13.90
2018-09-01T00:08:50.544Z,13.90
2018-09-01T00:11:19.192Z,13.80
2018-09-01T00:13:47.571Z,13.70
2018-09-01T00:16:16.091Z,13.70
2018-09-01T00:18:44.500Z,13.60
2018-09-01T00:21:12.964Z,13.60
2018-09-01T00:23:41.411Z,13.50
2018-09-01T00:26:09.883Z,13.50
2018-09-01T00:28:38.307Z,13.50
2018-09-01T00:31:06.739Z,13.50
2018-09-01T00:33:35.267Z,13.30
2018-09-01T00:36:03.736Z,13.30
2018-09-01T00:38:37.505Z,13.30
2018-09-01T00:41:05.998Z,13.30
2018-09-01T00:43:34.527Z,13.30
2018-09-01T00:46:02.980Z,13.20
2018-09-01T00:48:31.576Z,13.20
2018-09-01T00:51:00.080Z,13.20
2018-09-01T00:53:28.542Z,13.10
2018-09-01T00:55:56.976Z,13.10
2018-09-01T00:58:25.405Z,13.00
2018-09-01T01:00:53.854Z,12.90
2018-09-01T01:03:22.277Z,12.90
2018-09-01T01:05:50.781Z,12.90
2018-09-01T01:08:19.225Z,12.80
2018-09-01T01:10:47.608Z,12.80
2018-09-01T01:13:16.115Z,12.80
2018-09-01T01:15:44.597Z,12.70
2018-09-01T01:18:13.016Z,12.70
2018-09-01T01:20:41.503Z,12.70
2018-09-01T01:23:10.118Z,12.60
2018-09-01T01:25:38.534Z,12.60
2018-09-01T01:28:06.960Z,12.50
2018-09-01T01:30:35.459Z,12.50
2018-09-01T01:33:03.931Z,12.50
2018-09-01T01:35:32.315Z,12.40
2018-09-01T01:38:00.721Z,12.40
2018-09-01T01:40:29.123Z,12.40
2018-09-01T01:42:57.556Z,12.30
2018-09-01T01:45:26.063Z,12.30
2018-09-01T01:47:54.450Z,12.20
2018-09-01T01:50:22.948Z,12.20
2018-09-01T01:52:51.415Z,12.20
2018-09-01T01:55:19.867Z,12.20
2018-09-01T01:57:49.176Z,12.10
2018-09-01T02:00:19.735Z,12.10
2018-09-01T02:02:48.859Z,12.10
2018-09-01T02:05:19.533Z,12.10
2018-09-01T02:07:49.255Z,12.00
2018-09-01T02:10:17.722Z,12.00
2018-09-01T02:12:46.104Z,12.00
2018-09-01T02:15:14.583Z,12.00
2018-09-01T02:17:42.985Z,12.00
2018-09-01T02:20:11.411Z,12.00
2018-09-01T02:22:39.890Z,11.90
2018-09-01T02:25:08.334Z,11.90
2018-09-01T02:27:36.813Z,11.80
2018-09-01T02:30:05.382Z,11.80
2018-09-01T02:32:33.729Z,11.80
2018-09-01T02:35:02.149Z,11.80
2018-09-01T02:37:30.546Z,11.70
2018-09-01T02:39:58.930Z,11.70
2018-09-01T02:42:27.384Z,11.70
2018-09-01T02:44:55.831Z,11.70
2018-09-01T02:47:24.423Z,11.70
2018-09-01T02:49:52.816Z,11.70
2018-09-01T02:52:21.370Z,11.70
2018-09-01T02:54:49.785Z,11.60
2018-09-01T02:57:18.266Z,11.60
2018-09-01T02:59:46.704Z,11.60
2018-09-01T03:02:19.361Z,11.60
2018-09-01T03:04:47.811Z,11.60
2018-09-01T03:07:16.219Z,11.60
2018-09-01T03:09:44.666Z,11.60
2018-09-01T03:12:13.108Z,11.60
2018-09-01T03:14:41.628Z,11.70
2018-09-01T03:17:10.171Z,11.70
2018-09-01T03:19:38.797Z,11.70
2018-09-01T03:22:07.368Z,11.70
2018-09-01T03:24:35.815Z,11.60
2018-09-01T03:27:04.224Z,11.60
2018-09-01T03:29:32.655Z,11.60
2018-09-01T03:32:01.185Z,11.50
2018-09-01T03:34:29.632Z,11.50
2018-09-01T03:36:58.155Z,11.50
2018-09-01T03:39:26.631Z,11.40
2018-09-01T03:41:55.084Z,11.40
2018-09-01T03:44:23.550Z,11.40
2018-09-01T03:46:52.003Z,11.30
2018-09-01T03:49:20.405Z,11.30
2018-09-01T03:51:48.900Z,11.20
2018-09-01T03:54:17.303Z,11.20
2018-09-01T03:56:45.659Z,11.20
2018-09-01T03:59:14.113Z,11.10
2018-09-01T04:01:42.502Z,11.10
2018-09-01T04:04:11.079Z,11.10
2018-09-01T04:06:39.581Z,11.00
2018-09-01T04:09:07.956Z,11.00
2018-09-01T04:11:36.381Z,10.90
2018-09-01T04:14:04.805Z,10.90
2018-09-01T04:16:33.188Z,10.90
2018-09-01T04:19:05.818Z,10.80
2018-09-01T04:21:34.263Z,10.80
2018-09-01T04:24:02.704Z,10.80
2018-09-01T04:26:31.130Z,10.80
2018-09-01T04:28:59.584Z,10.80
2018-09-01T04:31:27.986Z,10.80
2018-09-01T04:33:56.399Z,10.70
2018-09-01T04:36:24.855Z,10.70
2018-09-01T04:38:53.300Z,10.70
2018-09-01T04:41:21.775Z,10.70
2018-09-01T04:43:50.266Z,10.70
2018-09-01T04:46:18.766Z,10.60
2018-09-01T04:48:47.307Z,10.60
2018-09-01T04:51:15.912Z,10.60
2018-09-01T04:53:44.452Z,10.60
2018-09-01T04:56:12.863Z,10.60
2018-09-01T04:58:41.260Z,10.60
2018-09-01T05:01:09.813Z,10.60
2018-09-01T05:03:38.091Z,10.50
2018-09-01T05:06:06.578Z,10.50
2018-09-01T05:08:34.957Z,10.50
2018-09-01T05:11:03.500Z,10.50
2018-09-01T05:13:31.938Z,10.50
2018-09-01T05:16:00.367Z,10.50
2018-09-01T05:18:28.785Z,10.50
2018-09-01T05:20:57.352Z,10.50
2018-09-01T05:23:25.827Z,10.40
2018-09-01T05:25:54.159Z,10.40
2018-09-01T05:28:22.591Z,10.40
2018-09-01T05:30:50.985Z,10.40
2018-09-01T05:33:19.459Z,10.40
2018-09-01T05:35:47.882Z,10.40
2018-09-01T05:38:16.305Z,10.40
2018-09-01T05:40:44.709Z,10.40
2018-09-01T05:43:13.084Z,10.40
2018-09-01T05:45:41.471Z,10.40
2018-09-01T05:48:09.875Z,10.40
2018-09-01T05:50:38.309Z,10.40
2018-09-01T05:53:06.775Z,10.40
2018-09-01T05:55:35.211Z,10.50
2018-09-01T05:58:03.638Z,10.50
2018-09-01T06:00:37.251Z,10.60
2018-09-01T06:03:05.634Z,10.60
2018-09-01T06:05:34.082Z,10.60
2018-09-01T06:08:02.535Z,10.60
2018-09-01T06:10:31.139Z,10.70
2018-09-01T06:12:59.668Z,10.70
2018-09-01T06:15:28.193Z,10.80
2018-09-01T06:17:56.705Z,10.90
2018-09-01T06:20:25.078Z,10.90
2018-09-01T06:22:53.538Z,11.00
2018-09-01T06:25:21.925Z,11.10
2018-09-01T06:27:52.144Z,11.20
2018-09-01T06:30:24.817Z,11.20
2018-09-01T06:32:53.380Z,11.30
2018-09-01T06:35:21.764Z,11.40
2018-09-01T06:37:50.159Z,11.50
2018-09-01T06:40:18.618Z,11.50
2018-09-01T06:42:47.039Z,11.60
2018-09-01T06:45:15.415Z,11.70
2018-09-01T06:47:43.863Z,11.70
2018-09-01T06:50:12.347Z,11.80
2018-09-01T06:52:40.813Z,11.90
2018-09-01T06:55:09.287Z,11.90
2018-09-01T06:57:37.708Z,12.00
2018-09-01T07:00:07.767Z,12.10
2018-09-01T07:02:36.199Z,12.20
2018-09-01T07:05:04.638Z,12.30
2018-09-01T07:07:33.188Z,12.40
2018-09-01T07:10:01.686Z,12.50
2018-09-01T07:12:30.103Z,12.60
2018-09-01T07:14:58.738Z,12.70
2018-09-01T07:17:27.247Z,12.90
2018-09-01T07:19:55.728Z,13.00
2018-09-01T07:22:24.380Z,13.10
2018-09-01T07:24:52.851Z,13.20
2018-09-01T07:27:21.334Z,13.30
2018-09-01T07:29:49.716Z,13.50
2018-09-01T07:32:18.152Z,13.70
2018-09-01T07:34:46.687Z,13.90
2018-09-01T07:37:15.196Z,14.10
2018-09-01T07:39:43.642Z,14.30
2018-09-01T07:42:12.062Z,14.50
2018-09-01T07:44:40.547Z,14.70
2018-09-01T07:47:09.091Z,14.80
2018-09-01T07:49:37.903Z,14.90
2018-09-01T07:52:06.567Z,15.10
2018-09-01T07:54:35.200Z,15.20
2018-09-01T07:57:03.952Z,15.40
2018-09-01T07:59:33.211Z,15.60
2018-09-01T08:02:01.683Z,15.80
2018-09-01T08:04:30.739Z,15.90
2018-09-01T08:06:59.183Z,16.10
2018-09-01T08:09:27.571Z,16.20
2018-09-01T08:11:56.004Z,16.50
2018-09-01T08:14:24.513Z,16.70
2018-09-01T08:16:52.915Z,16.80
2018-09-01T08:19:21.495Z,16.90
2018-09-01T08:21:50.032Z,17.10
2018-09-01T08:24:18.515Z,17.20
2018-09-01T08:26:46.971Z,17.40
2018-09-01T08:29:15.415Z,17.60
2018-09-01T08:31:43.935Z,17.90
2018-09-01T08:34:12.353Z,18.30
2018-09-01T08:36:41.082Z,18.30
2018-09-01T08:39:10.360Z,18.60
2018-09-01T08:41:38.812Z,18.90
2018-09-01T08:44:07.259Z,19.40
2018-09-01T08:46:36.972Z,19.80
2018-09-01T08:49:05.513Z,20.40
2018-09-01T08:51:34.047Z,21.00
2018-09-01T08:54:02.457Z,21.60
2018-09-01T08:56:30.937Z,22.20
2018-09-01T08:58:59.407Z,22.70
2018-09-01T09:01:27.984Z,23.60
2018-09-01T09:03:56.528Z,24.00
2018-09-01T09:06:25.051Z,24.40
2018-09-01T09:08:53.497Z,24.80
2018-09-01T09:11:21.871Z,25.30
2018-09-01T09:13:50.358Z,25.80
2018-09-01T09:16:19.009Z,26.30
2018-09-01T09:18:47.532Z,26.90
2018-09-01T09:21:16.022Z,27.30
2018-09-01T09:23:44.476Z,27.70
2018-09-01T09:26:12.947Z,28.10
2018-09-01T09:28:41.526Z,28.60
2018-09-01T09:31:10.009Z,29.10
2018-09-01T09:33:39.413Z,29.50
2018-09-01T09:36:07.792Z,29.80
2018-09-01T09:38:36.325Z,30.10
2018-09-01T09:41:05.101Z,30.70
2018-09-01T09:43:33.573Z,31.10
2018-09-01T09:46:02.004Z,31.30
2018-09-01T09:48:30.814Z,31.50
2018-09-01T09:51:00.885Z,31.90
2018-09-01T09:53:33.295Z,31.90
2018-09-01T09:56:01.834Z,31.90
2018-09-01T09:58:30.434Z,31.80
2018-09-01T10:01:05.748Z,31.60
2018-09-01T10:03:49.867Z,31.90
2018-09-01T10:06:26.286Z,32.20
2018-09-01T10:09:01.764Z,33.00
2018-09-01T10:11:39.656Z,33.50
2018-09-01T10:14:09.472Z,33.70
2018-09-01T10:16:43.023Z,34.00
2018-09-01T10:19:15.609Z,34.20
2018-09-01T10:21:48.848Z,34.60
2018-09-01T10:24:17.302Z,34.90
2018-09-01T10:26:45.862Z,35.20
2018-09-01T10:29:14.255Z,34.70
2018-09-01T10:31:43.320Z,33.90
2018-09-01T10:34:12.097Z,33.80
2018-09-01T10:36:40.785Z,34.40
2018-09-01T10:39:10.001Z,35.00
2018-09-01T10:41:38.475Z,35.80
2018-09-01T10:44:07.818Z,36.20
2018-09-01T10:46:36.293Z,36.00
2018-09-01T10:49:05.092Z,35.70
2018-09-01T10:51:33.691Z,35.30
2018-09-01T10:54:02.196Z,35.40
2018-09-01T10:56:30.597Z,35.80
2018-09-01T10:58:59.226Z,35.70
2018-09-01T11:01:27.571Z,34.70
2018-09-01T11:03:56.111Z,35.00
2018-09-01T11:06:24.562Z,35.20
2018-09-01T11:08:52.938Z,34.90
2018-09-01T11:11:21.479Z,34.70
2018-09-01T11:13:49.983Z,34.00
2018-09-01T11:16:18.409Z,34.00
2018-09-01T11:18:46.895Z,33.80
2018-09-01T11:21:15.338Z,33.70
2018-09-01T11:23:43.782Z,33.00
2018-09-01T11:26:12.188Z,31.60
2018-09-01T11:28:40.781Z,31.60
2018-09-01T11:31:09.565Z,31.20
2018-09-01T11:33:38.133Z,31.30
2018-09-01T11:36:06.608Z,32.10
2018-09-01T11:38:36.806Z,32.90
2018-09-01T11:41:08.131Z,33.50
2018-09-01T11:43:40.805Z,34.90
2018-09-01T11:46:09.375Z,35.70
2018-09-01T11:48:37.920Z,35.60
2018-09-01T11:51:06.463Z,35.20
2018-09-01T11:53:36.568Z,34.80
2018-09-01T11:56:05.790Z,33.70
2018-09-01T11:58:34.659Z,33.30
2018-09-01T12:01:04.711Z,33.80
2018-09-01T12:03:33.836Z,35.40
2018-09-01T12:06:04.150Z,36.70
2018-09-01T12:08:34.822Z,37.80
2018-09-01T12:11:03.730Z,38.30
2018-09-01T12:13:33.832Z,39.20
2018-09-01T12:16:03.336Z,38.50
2018-09-01T12:18:32.072Z,37.70
2018-09-01T12:21:00.576Z,37.10
2018-09-01T12:23:29.181Z,36.30
2018-09-01T12:25:57.688Z,37.00
2018-09-01T12:28:26.211Z,37.80
2018-09-01T12:30:54.654Z,36.80
2018-09-01T12:33:23.092Z,36.60
2018-09-01T12:35:51.764Z,37.70
2018-09-01T12:38:20.240Z,37.20
2018-09-01T12:40:48.632Z,38.70
2018-09-01T12:43:17.812Z,40.30
2018-09-01T12:45:46.188Z,40.60
2018-09-01T12:48:14.646Z,42.60
2018-09-01T12:50:43.069Z,44.40
2018-09-01T12:53:11.664Z,45.70
2018-09-01T12:55:40.220Z,46.60
2018-09-01T12:58:08.739Z,47.80
2018-09-01T13:00:37.197Z,48.80
2018-09-01T13:03:05.968Z,49.60
2018-09-01T13:05:34.359Z,50.10
2018-09-01T13:08:02.853Z,51.40
2018-09-01T13:10:31.275Z,51.50
2018-09-01T13:12:59.697Z,49.30
2018-09-01T13:15:28.186Z,46.50
2018-09-01T13:17:56.651Z,46.70
2018-09-01T13:20:25.107Z,49.60
2018-09-01T13:22:53.527Z,50.40
2018-09-01T13:25:22.071Z,49.80
2018-09-01T13:27:50.517Z,47.70
2018-09-01T13:30:18.900Z,43.30
2018-09-01T13:32:47.381Z,41.40
2018-09-01T13:35:15.942Z,40.60
2018-09-01T13:37:44.359Z,39.30
2018-09-01T13:40:12.839Z,38.90
2018-09-01T13:42:41.217Z,41.40
2018-09-01T13:45:09.717Z,44.70
2018-09-01T13:47:38.097Z,46.40
2018-09-01T13:50:06.637Z,48.20
2018-09-01T13:52:35.112Z,49.40
2018-09-01T13:55:03.703Z,50.30
2018-09-01T13:57:32.261Z,50.40
2018-09-01T14:00:00.820Z,48.80
2018-09-01T14:02:29.387Z,45.30
2018-09-01T14:04:57.912Z,40.90
2018-09-01T14:07:26.434Z,38.40
2018-09-01T14:09:55.043Z,38.70
2018-09-01T14:12:23.494Z,41.20
2018-09-01T14:14:52.209Z,43.80
2018-09-01T14:17:20.539Z,44.80
2018-09-01T14:19:49.244Z,45.90
2018-09-01T14:22:17.639Z,46.60
2018-09-01T14:24:46.115Z,47.90
2018-09-01T14:27:14.544Z,47.70
2018-09-01T14:29:43.052Z,48.50
2018-09-01T14:32:11.572Z,48.30
2018-09-01T14:34:40.162Z,48.10
2018-09-01T14:37:09.596Z,48.20
2018-09-01T14:39:38.025Z,47.00
2018-09-01T14:42:06.484Z,47.00
2018-09-01T14:44:34.945Z,46.80
2018-09-01T14:47:03.347Z,47.50
2018-09-01T14:49:31.867Z,48.40
2018-09-01T14:52:00.369Z,49.50
2018-09-01T14:54:28.791Z,49.70
2018-09-01T14:56:57.240Z,50.20
2018-09-01T14:59:25.684Z,47.50
2018-09-01T15:01:54.153Z,43.50
2018-09-01T15:04:22.547Z,41.00
2018-09-01T15:06:51.119Z,42.40
2018-09-01T15:09:19.533Z,43.40
2018-09-01T15:11:47.975Z,42.70
2018-09-01T15:14:16.457Z,43.30
2018-09-01T15:16:44.912Z,44.20
2018-09-01T15:19:13.332Z,44.60
2018-09-01T15:21:41.838Z,43.80
2018-09-01T15:24:10.284Z,44.60
2018-09-01T15:26:38.692Z,42.80
2018-09-01T15:29:07.123Z,41.00
2018-09-01T15:31:35.516Z,39.00
2018-09-01T15:34:04.060Z,38.30
2018-09-01T15:36:32.524Z,38.80
2018-09-01T15:39:00.981Z,39.30
2018-09-01T15:41:29.418Z,39.20
2018-09-01T15:43:57.946Z,38.70
2018-09-01T15:46:26.343Z,38.30
2018-09-01T15:48:54.795Z,37.40
2018-09-01T15:51:23.263Z,37.00
2018-09-01T15:53:51.767Z,36.60
2018-09-01T15:56:20.607Z,35.70
2018-09-01T15:58:49.449Z,35.30
2018-09-01T16:01:17.907Z,33.70
2018-09-01T16:03:46.445Z,32.80
2018-09-01T16:06:14.908Z,32.10
2018-09-01T16:08:43.390Z,32.20
2018-09-01T16:11:11.887Z,31.20
2018-09-01T16:13:40.354Z,30.20
2018-09-01T16:16:08.864Z,30.10
2018-09-01T16:18:37.270Z,30.00
2018-09-01T16:21:05.882Z,29.40
2018-09-01T16:23:34.266Z,29.20
2018-09-01T16:26:02.692Z,29.00
2018-09-01T16:28:31.183Z,28.90
2018-09-01T16:30:59.662Z,29.00
2018-09-01T16:33:28.144Z,28.70
2018-09-01T16:35:56.635Z,28.80
2018-09-01T16:38:25.191Z,28.90
2018-09-01T16:40:53.664Z,28.80
2018-09-01T16:43:22.105Z,28.40
2018-09-01T16:45:50.600Z,28.10
2018-09-01T16:48:19.075Z,27.80
2018-09-01T16:50:47.548Z,27.80
2018-09-01T16:53:15.962Z,27.50
2018-09-01T16:55:44.374Z,27.50
2018-09-01T16:58:12.822Z,27.30
2018-09-01T17:00:41.492Z,27.00
2018-09-01T17:03:09.963Z,27.00
2018-09-01T17:05:38.416Z,26.90
2018-09-01T17:08:06.927Z,26.60
2018-09-01T17:10:35.323Z,26.50
2018-09-01T17:13:03.827Z,26.40
2018-09-01T17:15:32.265Z,26.10
2018-09-01T17:18:00.860Z,26.00
2018-09-01T17:20:29.369Z,25.80
2018-09-01T17:22:57.817Z,25.30
2018-09-01T17:25:26.326Z,24.90
2018-09-01T17:27:54.875Z,24.50
2018-09-01T17:30:23.385Z,24.10
2018-09-01T17:32:51.831Z,24.00
2018-09-01T17:35:21.270Z,23.70
2018-09-01T17:37:49.780Z,23.60
2018-09-01T17:40:18.194Z,23.40
2018-09-01T17:42:46.717Z,23.20
2018-09-01T17:45:15.119Z,23.00
2018-09-01T17:47:43.583Z,23.10
2018-09-01T17:50:12.051Z,23.10
2018-09-01T17:52:40.496Z,23.10
2018-09-01T17:55:09.048Z,22.80
2018-09-01T17:57:37.636Z,22.80
2018-09-01T18:00:06.731Z,22.70
2018-09-01T18:02:35.213Z,22.40
2018-09-01T18:05:03.712Z,22.30
2018-09-01T18:07:32.148Z,22.20
2018-09-01T18:10:00.721Z,22.00
2018-09-01T18:12:29.149Z,22.10
2018-09-01T18:14:57.581Z,21.80
2018-09-01T18:17:26.041Z,21.50
2018-09-01T18:19:54.499Z,21.40
2018-09-01T18:22:22.981Z,21.30
2018-09-01T18:24:51.319Z,21.10
2018-09-01T18:27:19.767Z,21.00
2018-09-01T18:29:48.201Z,21.00
2018-09-01T18:32:16.647Z,20.80
2018-09-01T18:34:45.143Z,20.70
2018-09-01T18:37:13.615Z,20.60
2018-09-01T18:39:42.035Z,20.70
2018-09-01T18:42:10.589Z,20.60
2018-09-01T18:44:39.146Z,20.40
2018-09-01T18:47:07.649Z,20.30
2018-09-01T18:49:36.121Z,20.20
2018-09-01T18:52:04.706Z,20.00
2018-09-01T18:54:33.106Z,19.90
2018-09-01T18:57:01.570Z,19.90
2018-09-01T18:59:29.959Z,19.70
2018-09-01T19:01:58.396Z,19.70
2018-09-01T19:04:26.821Z,19.60
2018-09-01T19:06:55.255Z,19.50
2018-09-01T19:09:23.740Z,19.50
2018-09-01T19:11:52.170Z,19.30
2018-09-01T19:14:20.612Z,19.20
2018-09-01T19:16:49.091Z,19.10
2018-09-01T19:19:17.603Z,18.90
2018-09-01T19:21:46.076Z,18.90
2018-09-01T19:24:14.515Z,18.90
2018-09-01T19:26:43.159Z,18.80
2018-09-01T19:29:11.711Z,18.70
2018-09-01T19:31:40.299Z,18.60
2018-09-01T19:34:08.758Z,18.60
2018-09-01T19:36:37.151Z,18.50
2018-09-01T19:39:08.417Z,18.30
2018-09-01T19:41:36.933Z,18.20
2018-09-01T19:44:05.680Z,18.20
2018-09-01T19:46:34.120Z,18.20
2018-09-01T19:49:02.643Z,18.10
2018-09-01T19:51:31.193Z,18.10
2018-09-01T19:53:59.560Z,17.90
2018-09-01T19:56:28.110Z,17.80
2018-09-01T19:58:56.562Z,17.80
2018-09-01T20:01:25.172Z,17.70
2018-09-01T20:03:54.083Z,17.70
2018-09-01T20:06:22.488Z,17.60
2018-09-01T20:08:51.157Z,17.60
2018-09-01T20:11:20.095Z,17.50
2018-09-01T20:13:48.949Z,17.40
2018-09-01T20:16:17.379Z,17.40
2018-09-01T20:18:45.807Z,17.30
2018-09-01T20:21:14.208Z,17.20
2018-09-01T20:23:42.681Z,17.20
2018-09-01T20:26:11.082Z,17.10
2018-09-01T20:28:39.523Z,17.00
2018-09-01T20:31:08.064Z,16.90
2018-09-01T20:33:36.676Z,16.80
2018-09-01T20:36:09.300Z,16.80
2018-09-01T20:38:37.693Z,16.70
2018-09-01T20:41:06.298Z,16.70
2018-09-01T20:43:34.772Z,16.60
2018-09-01T20:46:03.300Z,16.50
2018-09-01T20:48:31.777Z,16.40
2018-09-01T20:51:00.179Z,16.40
2018-09-01T20:53:28.830Z,16.30
2018-09-01T20:55:57.216Z,16.20
2018-09-01T20:58:26.304Z,16.10
2018-09-01T21:00:54.688Z,16.10
2018-09-01T21:03:23.192Z,16.00
2018-09-01T21:05:51.784Z,16.00
2018-09-01T21:08:20.255Z,15.90
2018-09-01T21:10:48.703Z,15.80
2018-09-01T21:13:17.155Z,15.80
2018-09-01T21:15:45.629Z,15.70
2018-09-01T21:18:14.091Z,15.70
2018-09-01T21:20:42.539Z,15.60
2018-09-01T21:23:10.954Z,15.50
2018-09-01T21:25:39.351Z,15.50
2018-09-01T21:28:07.816Z,15.50
2018-09-01T21:30:36.257Z,15.40
2018-09-01T21:33:04.673Z,15.40
2018-09-01T21:35:33.130Z,15.30
2018-09-01T21:38:01.670Z,15.30
2018-09-01T21:40:30.105Z,15.20
2018-09-01T21:42:58.665Z,15.20
2018-09-01T21:45:27.131Z,15.20
2018-09-01T21:47:55.568Z,15.10
2018-09-01T21:50:24.037Z,15.10
2018-09-01T21:52:52.506Z,15.00
2018-09-01T21:55:20.935Z,15.00
2018-09-01T21:57:49.423Z,14.90
2018-09-01T22:00:18.777Z,14.90
2018-09-01T22:02:47.220Z,14.80
2018-09-01T22:05:16.796Z,14.80
2018-09-01T22:07:45.339Z,14.70
2018-09-01T22:10:13.794Z,14.70
2018-09-01T22:12:42.483Z,14.60
2018-09-01T22:15:11.017Z,14.60
2018-09-01T22:17:39.443Z,14.60
2018-09-01T22:20:07.948Z,14.50
2018-09-01T22:22:36.509Z,14.40
2018-09-01T22:25:04.974Z,14.40
2018-09-01T22:27:33.432Z,14.30
2018-09-01T22:30:01.852Z,14.30
2018-09-01T22:32:30.263Z,14.30
2018-09-01T22:34:58.696Z,14.20
2018-09-01T22:37:27.132Z,14.20
2018-09-01T22:39:55.537Z,14.10
2018-09-01T22:42:23.943Z,14.10
2018-09-01T22:44:52.381Z,14.00
2018-09-01T22:47:29.116Z,14.00
2018-09-01T22:49:57.534Z,13.90
2018-09-01T22:52:26.011Z,13.90
2018-09-01T22:54:54.427Z,13.90
2018-09-01T22:57:22.820Z,13.80
2018-09-01T22:59:51.251Z,13.80
2018-09-01T23:02:19.659Z,13.70
2018-09-01T23:04:48.025Z,13.70
2018-09-01T23:07:16.442Z,13.70
2018-09-01T23:09:44.957Z,13.60
2018-09-01T23:12:13.376Z,13.60
2018-09-01T23:14:41.822Z,13.60
2018-09-01T23:17:10.231Z,13.50
2018-09-01T23:19:38.665Z,13.50
2018-09-01T23:22:07.141Z,13.50
2018-09-01T23:24:35.503Z,13.50
2018-09-01T23:27:03.934Z,13.40
2018-09-01T23:29:32.332Z,13.30
2018-09-01T23:32:01.156Z,13.30
2018-09-01T23:34:29.592Z,13.30
2018-09-01T23:36:57.990Z,13.30
2018-09-01T23:39:27.393Z,13.20
2018-09-01T23:41:55.874Z,13.20
2018-09-01T23:44:24.318Z,13.10
2018-09-01T23:46:52.688Z,13.00
2018-09-01T23:49:21.107Z,13.00
2018-09-01T23:51:49.584Z,13.00
2018-09-01T23:54:17.928Z,12.90
2018-09-01T23:56:46.390Z,12.90
2018-09-01T23:59:14.866Z,12.90
